Time;durP1;ratioP1;P1;durP2;ratioP2;P2;SDS_P1;SDS_P2;PMS_P1;PMS_P2;Temp;Humidity;BMP_temperature;BMP_pressure;BME280_temperature;BME280_humidity;BME280_pressure;Samples;Min_cycle;Max_cycle;Signal;HPM_P1;HPM_P2
2021/11/17 02:25:53;;;;;;;36.78;15.55;;;6.80;99.90;;;;;;5054284;28;20243;-37
2021/11/17 02:28:46;;;;;;;37.00;14.57;;;6.80;99.90;;;;;;5054306;28;20033;-37
2021/11/17 02:31:40;;;;;;;37.78;15.95;;;6.80;99.90;;;;;;5054092;28;20029;-38
2021/11/17 02:34:30;;;;;;;32.60;14.88;;;6.80;99.90;;;;;;5054035;28;20049;-37
2021/11/17 02:37:27;;;;;;;39.53;14.38;;;6.70;99.90;;;;;;5053166;28;20174;-38
2021/11/17 02:40:27;;;;;;;34.07;15.10;;;6.80;99.90;;;;;;5053978;28;20060;-38
2021/11/17 02:43:24;;;;;;;34.15;15.18;;;6.80;99.90;;;;;;5053696;28;20272;-37
2021/11/17 02:45:56;;;;;;;43.47;17.27;;;6.70;99.90;;;;;;5053809;28;20028;-38
2021/11/17 02:48:53;;;;;;;40.55;16.23;;;6.70;99.90;;;;;;5053878;28;20025;-37
2021/11/17 02:51:52;;;;;;;34.22;15.68;;;6.70;99.90;;;;;;5053414;28;20032;-38
2021/11/17 02:54:36;;;;;;;41.15;15.90;;;6.70;99.90;;;;;;5053558;28;20021;-37
2021/11/17 02:57:23;;;;;;;32.22;14.85;;;6.60;99.90;;;;;;5053798;28;20075;-37
2021/11/17 03:00:14;;;;;;;42.30;15.50;;;6.60;99.90;;;;;;5052450;28;20029;-37
2021/11/17 03:03:13;;;;;;;33.35;13.45;;;6.70;99.90;;;;;;5053376;28;20036;-37
2021/11/17 03:05:53;;;;;;;36.35;16.17;;;6.70;99.90;;;;;;5053473;28;20020;-38
2021/11/17 03:08:35;;;;;;;42.40;15.35;;;6.60;99.90;;;;;;5052528;28;20059;-38
2021/11/17 03:11:47;;;;;;;32.55;13.82;;;6.60;99.90;;;;;;5053350;28;20028;-37
2021/11/17 03:14:19;;;;;;;38.03;14.52;;;6.60;99.90;;;;;;5053328;28;20052;-37
2021/11/17 03:17:24;;;;;;;43.58;16.45;;;6.60;99.90;;;;;;5053183;28;20560;-37
2021/11/17 03:20:18;;;;;;;34.80;14.48;;;6.60;99.90;;;;;;5053215;28;20028;-37
2021/11/17 03:23:08;;;;;;;36.00;14.95;;;6.60;99.90;;;;;;5052140;28;20029;-37
2021/11/17 03:26:01;;;;;;;38.33;17.10;;;6.60;99.90;;;;;;5053056;28;20522;-38
2021/11/17 03:28:41;;;;;;;32.13;12.93;;;6.50;99.90;;;;;;5053093;28;20029;-38
2021/11/17 03:31:38;;;;;;;29.17;12.68;;;6.50;99.90;;;;;;5053090;28;20025;-37
2021/11/17 03:34:24;;;;;;;27.13;10.88;;;6.50;99.90;;;;;;5052919;28;20474;-37
2021/11/17 03:36:50;;;;;;;;;;;6.50;99.90;;;;;;5052426;28;20063;-38
2021/11/17 03:39:29;;;;;;;23.97;9.93;;;6.50;99.90;;;;;;5053007;28;19912;-38
2021/11/17 03:42:20;;;;;;;20.67;9.05;;;6.50;99.90;;;;;;5052827;28;20075;-37
2021/11/17 03:45:17;;;;;;;24.17;9.88;;;6.40;99.90;;;;;;5051518;28;20021;-38
2021/11/17 03:48:20;;;;;;;19.20;8.35;;;6.40;99.90;;;;;;5044378;28;20040;-38
2021/11/17 03:51:14;;;;;;;21.08;8.95;;;6.40;99.90;;;;;;5052674;28;20057;-37
2021/11/17 03:54:07;;;;;;;17.85;8.75;;;6.40;99.90;;;;;;5051660;28;20056;-38
2021/11/17 03:57:01;;;;;;;19.90;9.15;;;6.40;99.90;;;;;;5052702;28;20032;-38
2021/11/17 03:59:35;;;;;;;19.45;9.05;;;6.40;99.90;;;;;;5052710;28;20047;-37
2021/11/17 04:02:33;;;;;;;18.70;8.95;;;6.30;99.90;;;;;;5052518;28;20025;-37
2021/11/17 04:05:22;;;;;;;21.88;9.05;;;6.30;99.90;;;;;;5051711;28;20060;-38
2021/11/17 04:08:14;;;;;;;19.38;7.97;;;6.30;99.90;;;;;;5051618;28;20028;-37
2021/11/17 04:11:16;;;;;;;22.60;9.20;;;6.30;99.90;;;;;;5052489;28;20071;-38
2021/11/17 04:13:41;;;;;;;24.48;11.23;;;6.30;99.90;;;;;;5052413;28;20017;-37
2021/11/17 04:16:16;;;;;;;17.58;9.40;;;6.30;99.90;;;;;;5052496;28;20031;-37
2021/11/17 04:19:10;;;;;;;18.92;9.43;;;6.20;99.90;;;;;;5052002;28;20052;-39
2021/11/17 04:22:13;;;;;;;17.25;8.98;;;6.30;99.90;;;;;;5034682;28;20041;-37
2021/11/17 04:24:53;;;;;;;16.60;8.73;;;6.30;99.90;;;;;;5052318;28;20037;-37
2021/11/17 04:27:31;;;;;;;18.55;8.63;;;6.30;99.90;;;;;;5052426;28;20033;-38
2021/11/17 04:30:35;;;;;;;19.67;8.52;;;6.20;99.90;;;;;;5052262;28;20025;-38
2021/11/17 04:33:36;;;;;;;18.85;10.07;;;6.20;99.90;;;;;;5052105;28;20404;-37
2021/11/17 04:36:23;;;;;;;17.52;8.85;;;6.20;99.90;;;;;;5052238;28;20025;-38
2021/11/17 04:39:07;;;;;;;17.67;8.23;;;6.20;99.90;;;;;;5051282;28;20021;-38
2021/11/17 04:41:57;;;;;;;16.75;7.50;;;6.20;99.90;;;;;;5052225;28;20116;-37
2021/11/17 04:44:34;;;;;;;16.48;8.85;;;6.20;99.90;;;;;;5052237;28;20044;-38
2021/11/17 04:47:18;;;;;;;15.55;8.13;;;6.20;99.90;;;;;;5051991;28;20022;-38
2021/11/17 04:49:56;;;;;;;16.15;7.47;;;6.10;99.90;;;;;;5052058;28;20032;-38
2021/11/17 04:52:28;;;;;;;17.77;8.35;;;6.10;99.90;;;;;;5051199;28;20475;-38
2021/11/17 04:55:21;;;;;;;20.38;8.40;;;6.10;99.90;;;;;;5052073;28;20025;-38
2021/11/17 04:58:17;;;;;;;17.85;8.32;;;6.20;99.90;;;;;;5051997;28;20412;-38
2021/11/17 05:01:15;;;;;;;18.15;8.30;;;6.20;99.90;;;;;;5051938;28;20029;-37
2021/11/17 05:03:40;;;;;;;16.42;8.88;;;6.20;99.90;;;;;;5051847;28;20032;-37
2021/11/17 05:06:06;;;;;;;14.48;7.82;;;6.20;99.90;;;;;;5051889;28;20025;-37
2021/11/17 05:08:52;;;;;;;14.07;7.65;;;6.10;99.90;;;;;;5051066;28;20032;-37
2021/11/17 05:11:45;;;;;;;18.42;8.98;;;6.10;99.90;;;;;;5051965;28;20029;-38
2021/11/17 05:14:10;;;;;;;17.98;9.18;;;6.10;99.90;;;;;;5051869;28;20047;-38
2021/11/17 05:16:54;;;;;;;16.80;8.05;;;6.10;99.90;;;;;;5055294;28;20465;-38
2021/11/17 05:19:57;;;;;;;17.45;8.52;;;6.10;99.90;;;;;;5054354;28;20029;-38
2021/11/17 05:22:44;;;;;;;19.58;9.43;;;6.10;99.90;;;;;;5054105;28;20029;-37
2021/11/17 05:25:25;;;;;;;20.42;9.23;;;6.10;99.90;;;;;;5055488;28;20590;-37
2021/11/17 05:28:03;;;;;;;21.20;9.18;;;6.10;99.90;;;;;;5055399;28;20037;-37
2021/11/17 05:30:44;;;;;;;17.70;9.35;;;6.10;99.90;;;;;;5055353;28;20320;-38
2021/11/17 05:33:28;;;;;;;18.15;8.75;;;6.10;99.90;;;;;;5055106;28;20049;-37
2021/11/17 05:35:53;;;;;;;17.42;8.90;;;6.10;99.90;;;;;;5055203;28;20035;-38
2021/11/17 05:38:28;;;;;;;19.05;8.63;;;6.10;99.90;;;;;;5054291;28;20029;-38
2021/11/17 05:41:07;;;;;;;14.88;8.52;;;6.00;99.90;;;;;;5054988;28;20044;-37
2021/11/17 05:44:13;;;;;;;18.30;8.68;;;6.10;99.90;;;;;;5055065;28;20021;-38
2021/11/17 05:47:14;;;;;;;21.38;9.88;;;6.00;99.90;;;;;;5055081;28;20029;-38
2021/11/17 05:50:04;;;;;;;19.50;8.73;;;6.00;99.90;;;;;;5054808;28;20035;-42
2021/11/17 05:52:41;;;;;;;18.52;8.13;;;6.00;99.90;;;;;;5054008;28;20388;-37
2021/11/17 05:55:31;;;;;;;14.07;7.30;;;6.00;99.90;;;;;;5054845;28;20047;-38
2021/11/17 05:58:06;;;;;;;13.20;6.68;;;6.00;99.90;;;;;;5054603;28;20091;-38
2021/11/17 06:00:50;;;;;;;15.98;7.15;;;6.00;99.90;;;;;;5054673;28;20037;-38
2021/11/17 06:03:30;;;;;;;8.70;5.28;;;6.00;99.90;;;;;;5054609;28;20491;-38
2021/11/17 06:05:55;;;;;;;9.93;5.00;;;6.00;99.90;;;;;;5054633;28;20040;-38
2021/11/17 06:08:20;;;;;;;7.85;4.47;;;6.00;99.90;;;;;;5053575;28;20025;-38
2021/11/17 06:10:49;;;;;;;8.40;3.58;;;6.00;99.90;;;;;;5054587;28;20021;-37
2021/11/17 06:13:16;;;;;;;5.57;3.58;;;6.00;99.90;;;;;;5054559;28;20021;-37
2021/11/17 06:15:43;;;;;;;6.05;3.45;;;6.00;99.90;;;;;;5054492;28;20021;-38
2021/11/17 06:18:12;;;;;;;8.43;4.20;;;6.00;99.90;;;;;;5054390;28;20025;-37
2021/11/17 06:20:38;;;;;;;8.98;4.18;;;6.00;99.90;;;;;;5054259;28;20066;-38
2021/11/17 06:23:17;;;;;;;8.27;3.72;;;6.00;99.90;;;;;;5053338;28;20052;-37
2021/11/17 06:25:43;;;;;;;6.28;3.78;;;6.00;99.90;;;;;;5054159;28;20074;-37
2021/11/17 06:28:09;;;;;;;7.85;4.30;;;6.00;99.90;;;;;;5053353;28;20036;-37
2021/11/17 06:30:41;;;;;;;7.55;3.90;;;5.90;99.90;;;;;;5042294;28;20049;-38
2021/11/17 06:33:09;;;;;;;4.00;2.78;;;5.90;99.90;;;;;;5033694;28;20501;-37
2021/11/17 06:35:35;;;;;;;5.30;3.25;;;5.90;99.90;;;;;;5031136;28;20052;-40
2021/11/17 06:38:02;;;;;;;4.82;3.58;;;6.00;99.90;;;;;;5027881;28;20756;-39
2021/11/17 06:40:29;;;;;;;6.03;3.33;;;5.90;99.90;;;;;;5032459;28;20382;-39
2021/11/17 06:42:57;;;;;;;5.57;2.88;;;5.90;99.90;;;;;;5032101;28;20373;-47
2021/11/17 06:45:32;;;;;;;5.78;3.63;;;5.90;99.90;;;;;;5032417;28;20025;-40
2021/11/17 06:47:58;;;;;;;6.88;3.95;;;6.00;99.90;;;;;;5032039;28;20026;-42
2021/11/17 06:50:24;;;;;;;6.70;3.33;;;5.90;99.90;;;;;;5032220;28;20461;-39
2021/11/17 06:52:49;;;;;;;6.65;3.90;;;5.90;99.90;;;;;;5031104;28;20045;-40
2021/11/17 06:55:16;;;;;;;6.95;3.83;;;5.90;99.90;;;;;;5027443;28;20033;-40
2021/11/17 06:57:42;;;;;;;5.95;4.03;;;5.90;99.90;;;;;;5023189;28;20111;-42
2021/11/17 07:00:11;;;;;;;5.70;3.50;;;5.90;99.90;;;;;;5031533;28;20056;-41
2021/11/17 07:02:37;;;;;;;8.20;3.92;;;6.00;99.90;;;;;;5031981;28;20570;-41
2021/11/17 07:05:03;;;;;;;6.43;4.00;;;6.00;99.90;;;;;;5031716;28;20021;-40
2021/11/17 07:07:29;;;;;;;9.02;4.93;;;6.00;99.90;;;;;;5030810;28;20056;-41
2021/11/17 07:09:55;;;;;;;8.00;3.97;;;6.00;99.90;;;;;;5031714;28;20049;-43
2021/11/17 07:12:20;;;;;;;8.23;5.00;;;6.00;99.90;;;;;;5031676;28;20104;-42
2021/11/17 07:14:47;;;;;;;8.88;4.15;;;6.00;99.90;;;;;;5031480;28;20522;-41
2021/11/17 07:17:13;;;;;;;10.52;4.68;;;6.10;99.90;;;;;;5031443;28;20412;-39
2021/11/17 07:19:38;;;;;;;8.38;4.00;;;6.10;99.90;;;;;;5031504;28;20034;-43
2021/11/17 07:22:07;;;;;;;6.63;3.70;;;6.10;99.90;;;;;;5030499;28;20057;-42
2021/11/17 07:24:33;;;;;;;8.27;4.38;;;6.10;99.90;;;;;;5031478;28;20028;-40
2021/11/17 07:27:00;;;;;;;8.10;4.35;;;6.10;99.90;;;;;;5031238;28;20063;-41
2021/11/17 07:29:26;;;;;;;7.80;4.28;;;6.10;99.90;;;;;;5031519;28;20029;-41
2021/11/17 07:31:52;;;;;;;7.95;4.35;;;6.10;99.90;;;;;;5031148;28;20513;-40
2021/11/17 07:34:18;;;;;;;6.70;4.63;;;6.10;99.90;;;;;;5031129;28;20091;-41
2021/11/17 07:36:44;;;;;;;8.73;5.43;;;6.10;99.90;;;;;;5030440;28;20374;-42
2021/11/17 07:39:13;;;;;;;7.78;4.28;;;6.10;99.90;;;;;;5030851;28;20056;-42
2021/11/17 07:41:41;;;;;;;10.25;4.85;;;6.10;99.90;;;;;;5031124;28;20029;-43
2021/11/17 07:44:07;;;;;;;7.80;4.75;;;6.10;99.90;;;;;;5030650;28;20017;-43
2021/11/17 07:46:33;;;;;;;7.43;4.88;;;6.10;99.90;;;;;;5031132;28;20029;-40
2021/11/17 07:48:58;;;;;;;8.00;5.13;;;6.10;99.90;;;;;;5031057;28;20025;-43
2021/11/17 07:51:25;;;;;;;8.85;4.90;;;6.10;99.90;;;;;;5031118;28;20029;-40
2021/11/17 07:53:50;;;;;;;9.63;4.50;;;6.10;99.90;;;;;;5030233;28;20076;-42
2021/11/17 07:56:16;;;;;;;8.30;4.97;;;6.00;99.90;;;;;;5030809;28;20029;-41
2021/11/17 07:58:44;;;;;;;9.20;5.18;;;6.00;99.90;;;;;;5030730;28;20053;-41
2021/11/17 08:01:11;;;;;;;8.40;4.93;;;6.00;99.90;;;;;;5030029;28;20021;-41
2021/11/17 08:03:40;;;;;;;9.05;5.07;;;6.00;99.90;;;;;;5030855;28;20065;-44
2021/11/17 08:06:06;;;;;;;8.88;4.95;;;6.00;99.90;;;;;;5030841;28;20465;-41
2021/11/17 08:08:33;;;;;;;9.77;4.78;;;6.00;99.90;;;;;;5030001;28;20022;-41
2021/11/17 08:11:01;;;;;;;9.18;5.53;;;6.00;99.90;;;;;;5030895;28;20109;-40
2021/11/17 08:13:27;;;;;;;9.32;5.10;;;6.10;99.90;;;;;;5030634;28;20488;-40
2021/11/17 08:15:53;;;;;;;10.10;5.60;;;6.10;99.90;;;;;;5030717;28;20121;-40
2021/11/17 08:18:18;;;;;;;9.07;5.72;;;6.00;99.90;;;;;;5030818;28;20060;-40
2021/11/17 08:20:44;;;;;;;9.68;5.65;;;6.10;99.90;;;;;;5030772;28;20081;-39
2021/11/17 08:23:09;;;;;;;9.55;5.38;;;6.10;99.90;;;;;;5028832;28;20108;-43
2021/11/17 08:25:37;;;;;;;11.77;5.97;;;6.10;99.90;;;;;;5030740;28;20048;-40
2021/11/17 08:28:04;;;;;;;10.20;5.53;;;6.10;99.90;;;;;;5030351;28;20373;-39
2021/11/17 08:30:32;;;;;;;11.57;4.82;;;6.10;99.90;;;;;;5030753;28;20037;-40
2021/11/17 08:32:58;;;;;;;10.82;5.78;;;6.10;99.90;;;;;;5030335;28;20045;-43
2021/11/17 08:35:26;;;;;;;9.27;5.20;;;6.10;99.90;;;;;;5030623;28;20052;-39
2021/11/17 08:37:53;;;;;;;11.82;6.30;;;6.10;99.90;;;;;;5029793;28;20030;-40
2021/11/17 08:40:41;;;;;;;10.27;5.63;;;6.10;99.90;;;;;;5029581;28;20049;-39
2021/11/17 08:43:07;;;;;;;11.93;5.60;;;6.10;99.90;;;;;;5030424;28;20119;-40
2021/11/17 08:45:36;;;;;;;13.10;6.70;;;6.10;99.90;;;;;;5030730;28;20386;-39
2021/11/17 08:48:03;;;;;;;10.25;5.90;;;6.20;99.90;;;;;;5030531;28;20029;-40
2021/11/17 08:50:32;;;;;;;8.80;5.28;;;6.10;99.90;;;;;;5032241;28;20033;-39
2021/11/17 08:52:57;;;;;;;11.48;7.20;;;6.20;99.90;;;;;;5033165;28;20073;-40
2021/11/17 08:55:25;;;;;;;8.90;5.57;;;6.20;99.90;;;;;;5032943;28;20087;-40
2021/11/17 08:57:52;;;;;;;10.50;5.93;;;6.20;99.90;;;;;;5034168;28;20025;-39
2021/11/17 09:00:21;;;;;;;12.93;5.50;;;6.20;99.90;;;;;;5033978;28;20033;-39
2021/11/17 09:02:48;;;;;;;12.10;6.63;;;6.20;99.90;;;;;;5034241;28;20512;-40
2021/11/17 09:05:19;;;;;;;10.02;5.80;;;6.20;99.90;;;;;;5034177;28;20404;-39
2021/11/17 09:07:46;;;;;;;11.80;6.10;;;6.20;99.90;;;;;;5032933;28;20025;-39
2021/11/17 09:10:15;;;;;;;13.90;7.13;;;6.20;99.90;;;;;;5033974;28;20672;-40
2021/11/17 09:12:41;;;;;;;12.63;5.95;;;6.20;99.90;;;;;;5034062;28;20025;-41
2021/11/17 09:15:09;;;;;;;15.32;6.93;;;6.10;99.90;;;;;;5033923;28;20575;-39
2021/11/17 09:17:36;;;;;;;9.88;5.97;;;6.20;99.90;;;;;;5034011;28;20025;-40
2021/11/17 09:20:03;;;;;;;11.52;5.68;;;6.20;99.90;;;;;;5033563;28;20113;-42
2021/11/17 09:22:28;;;;;;;11.48;6.55;;;6.20;99.90;;;;;;5032817;28;20037;-42
2021/11/17 09:24:54;;;;;;;12.23;6.95;;;6.20;99.90;;;;;;5033765;28;20431;-42
2021/11/17 09:27:19;;;;;;;17.70;7.07;;;6.20;99.90;;;;;;5033545;28;20026;-42
2021/11/17 09:29:45;;;;;;;14.15;6.50;;;6.20;99.90;;;;;;5033875;28;20071;-39
2021/11/17 09:32:12;;;;;;;12.65;6.82;;;6.30;99.90;;;;;;5033532;28;20025;-39
2021/11/17 09:34:38;;;;;;;7.47;4.95;;;6.30;99.90;;;;;;5033488;28;20064;-42
2021/11/17 09:37:07;;;;;;;11.70;6.03;;;6.30;99.90;;;;;;5032658;28;20037;-40
2021/11/17 09:39:34;;;;;;;12.35;6.72;;;6.40;99.90;;;;;;5033515;28;20044;-44
2021/11/17 09:42:00;;;;;;;12.07;6.70;;;6.40;99.90;;;;;;5033282;28;20045;-40
2021/11/17 09:44:29;;;;;;;12.48;6.38;;;6.40;99.90;;;;;;5033199;28;20021;-43
2021/11/17 09:46:57;;;;;;;13.10;6.35;;;6.40;99.90;;;;;;5033311;28;20048;-40
2021/11/17 09:49:26;;;;;;;13.13;7.20;;;6.40;99.90;;;;;;5033089;28;20354;-40
2021/11/17 09:51:56;;;;;;;12.73;6.82;;;6.50;99.90;;;;;;5032488;28;20857;-41
2021/11/17 09:54:32;;;;;;;12.00;6.40;;;6.50;99.90;;;;;;5033118;28;20087;-39
2021/11/17 09:57:06;;;;;;;10.27;6.38;;;6.50;99.90;;;;;;5033096;28;20025;-42
2021/11/17 09:59:37;;;;;;;12.25;7.03;;;6.50;99.90;;;;;;5033099;28;20504;-39
2021/11/17 10:02:18;;;;;;;11.60;6.55;;;6.50;99.90;;;;;;5031564;28;20030;-40
2021/11/17 10:04:53;;;;;;;14.10;6.38;;;6.50;99.90;;;;;;5033018;28;20033;-40
2021/11/17 10:13:10;;;;;;;11.98;7.05;;;6.60;99.90;;;;;;5033012;28;20017;-41
2021/11/17 10:15:40;;;;;;;13.57;6.75;;;6.60;99.90;;;;;;5032869;28;20026;-40
2021/11/17 10:18:19;;;;;;;11.63;6.38;;;6.60;99.90;;;;;;5032898;28;20546;-40
2021/11/17 10:20:47;;;;;;;12.35;6.80;;;6.60;99.90;;;;;;5032431;28;20076;-40
2021/11/17 10:23:28;;;;;;;11.23;6.55;;;6.60;99.90;;;;;;5031874;28;20561;-40
2021/11/17 10:25:56;;;;;;;11.40;5.97;;;6.70;99.90;;;;;;5032681;28;20009;-40
2021/11/17 10:28:41;;;;;;;9.00;5.18;;;6.70;99.90;;;;;;5032402;28;20540;-39
2021/11/17 10:31:24;;;;;;;10.25;5.40;;;6.70;99.90;;;;;;5032376;28;20037;-40
2021/11/17 10:34:11;;;;;;;9.35;5.20;;;6.70;99.90;;;;;;5032268;28;20049;-40
2021/11/17 10:37:15;;;;;;;11.13;5.45;;;6.70;99.90;;;;;;5031544;28;20862;-42
2021/11/17 10:39:45;;;;;;;10.45;5.60;;;6.70;99.90;;;;;;5031914;28;20018;-41
2021/11/17 10:42:33;;;;;;;11.43;5.53;;;6.80;99.90;;;;;;5032060;28;20021;-39
2021/11/17 10:45:24;;;;;;;11.30;5.32;;;6.80;99.90;;;;;;5032291;28;20068;-42
2021/11/17 10:47:51;;;;;;;8.10;4.68;;;6.80;99.90;;;;;;5015096;28;20038;-43
2021/11/17 10:50:28;;;;;;;11.85;5.72;;;6.90;99.90;;;;;;5016836;28;20036;-40
2021/11/17 10:53:04;;;;;;;9.00;5.38;;;6.90;99.90;;;;;;5029778;28;20389;-40
2021/11/17 10:55:34;;;;;;;9.50;5.97;;;6.90;99.90;;;;;;5030124;28;20381;-39
2021/11/17 10:58:02;;;;;;;11.15;5.93;;;6.90;99.90;;;;;;5030553;28;20040;-42
2021/11/17 11:00:58;;;;;;;9.65;6.03;;;6.90;99.90;;;;;;5030111;28;20387;-39
2021/11/17 11:03:24;;;;;;;9.23;5.40;;;6.90;99.90;;;;;;5028797;28;20065;-40
2021/11/17 11:06:08;;;;;;;9.27;5.30;;;7.00;99.90;;;;;;5030326;28;20264;-43
2021/11/17 11:08:41;;;;;;;7.90;4.68;;;7.00;99.90;;;;;;5029106;28;20033;-39
2021/11/17 11:11:09;;;;;;;10.70;5.35;;;7.00;99.90;;;;;;5030270;28;20044;-40
2021/11/17 11:13:46;;;;;;;8.57;4.90;;;7.00;99.90;;;;;;5029603;28;20025;-42
2021/11/17 11:16:19;;;;;;;10.90;5.38;;;7.00;99.90;;;;;;5030067;28;20029;-40
2021/11/17 11:18:50;;;;;;;9.18;5.40;;;7.00;99.90;;;;;;5030047;28;20033;-40
2021/11/17 11:21:36;;;;;;;8.13;4.95;;;7.00;99.90;;;;;;5029884;28;20108;-40
2021/11/17 11:24:10;;;;;;;11.52;5.75;;;7.00;99.90;;;;;;5030123;28;20049;-41
2021/11/17 11:27:03;;;;;;;10.15;5.97;;;7.00;99.90;;;;;;5029944;28;20025;-40
2021/11/17 11:29:41;;;;;;;8.32;5.30;;;7.00;99.90;;;;;;5029656;28;20024;-42
2021/11/17 11:32:08;;;;;;;8.88;5.13;;;7.00;99.90;;;;;;5028646;28;20032;-39
2021/11/17 11:34:58;;;;;;;12.23;6.22;;;7.00;99.90;;;;;;5029670;28;20057;-39
2021/11/17 11:37:24;;;;;;;11.18;5.45;;;7.00;99.90;;;;;;5028622;28;20033;-42
2021/11/17 11:39:53;;;;;;;9.80;6.10;;;7.00;99.90;;;;;;5029610;28;20033;-40
2021/11/17 11:42:24;;;;;;;7.80;5.03;;;7.00;99.90;;;;;;5029518;28;20033;-40
2021/11/17 11:44:57;;;;;;;9.20;5.25;;;7.00;99.90;;;;;;5029710;28;20116;-40
2021/11/17 11:47:23;;;;;;;9.80;5.68;;;7.10;99.90;;;;;;5029510;28;20044;-47
2021/11/17 11:49:48;;;;;;;9.38;5.00;;;7.10;99.90;;;;;;5029609;28;20064;-42
2021/11/17 11:52:23;;;;;;;8.38;4.93;;;7.10;99.90;;;;;;5028097;28;20060;-41
2021/11/17 11:54:53;;;;;;;8.68;4.95;;;7.10;99.90;;;;;;5029473;28;20021;-40
2021/11/17 11:57:36;;;;;;;10.95;5.32;;;7.10;99.90;;;;;;5029564;28;20041;-43
2021/11/17 12:00:19;;;;;;;8.80;5.32;;;7.00;99.90;;;;;;5029303;28;20052;-44
2021/11/17 12:02:55;;;;;;;10.05;5.47;;;7.10;99.90;;;;;;5029317;28;20075;-41
2021/11/17 12:05:35;;;;;;;9.60;5.68;;;7.10;99.90;;;;;;5029305;28;20381;-40
2021/11/17 12:08:22;;;;;;;8.80;5.47;;;7.00;99.90;;;;;;5027634;28;20037;-43
2021/11/17 12:11:02;;;;;;;8.82;5.35;;;7.00;99.90;;;;;;5029226;28;20025;-43
2021/11/17 12:13:34;;;;;;;9.98;6.00;;;7.00;99.90;;;;;;5028910;28;20064;-40
2021/11/17 12:16:06;;;;;;;8.50;5.78;;;7.00;99.90;;;;;;5029170;28;20072;-40
2021/11/17 12:18:55;;;;;;;10.23;5.72;;;7.00;99.90;;;;;;5029104;28;20056;-39
2021/11/17 12:21:39;;;;;;;7.60;5.38;;;7.00;99.90;;;;;;5028047;28;20038;-40
2021/11/17 12:24:07;;;;;;;9.43;6.20;;;7.00;99.90;;;;;;5029166;28;20021;-42
2021/11/17 12:26:34;;;;;;;10.35;6.40;;;6.90;99.90;;;;;;5032856;28;20081;-40
2021/11/17 12:29:20;;;;;;;10.38;6.20;;;6.90;99.90;;;;;;5033225;28;20033;-42
2021/11/17 12:31:54;;;;;;;9.50;6.15;;;6.90;99.90;;;;;;5032035;28;20140;-43
2021/11/17 12:34:34;;;;;;;11.00;6.07;;;6.90;99.90;;;;;;5033060;28;20048;-40
2021/11/17 12:37:30;;;;;;;11.15;6.15;;;6.90;99.90;;;;;;5032253;28;20033;-43
2021/11/17 12:39:56;;;;;;;11.68;6.32;;;6.90;99.90;;;;;;4995511;28;20044;-40
2021/11/17 12:42:37;;;;;;;12.02;6.75;;;6.90;99.90;;;;;;5033020;28;20026;-42
2021/11/17 12:45:33;;;;;;;11.57;6.43;;;6.90;99.90;;;;;;5033045;28;20384;-40
2021/11/17 12:48:19;;;;;;;9.02;4.82;;;6.80;99.90;;;;;;5033037;28;20026;-42
2021/11/17 12:50:48;;;;;;;10.77;6.55;;;6.90;99.90;;;;;;5032374;28;20037;-41
2021/11/17 12:53:28;;;;;;;9.70;5.90;;;6.80;99.90;;;;;;5031971;28;20072;-39
2021/11/17 12:56:06;;;;;;;10.57;6.68;;;6.90;99.90;;;;;;5032856;28;20452;-40
2021/11/17 12:58:46;;;;;;;12.27;6.75;;;6.90;99.90;;;;;;5032691;28;20029;-39
2021/11/17 13:01:37;;;;;;;11.15;6.68;;;6.80;99.90;;;;;;5032584;28;20034;-42
2021/11/17 13:04:16;;;;;;;12.05;6.00;;;6.80;99.90;;;;;;5032771;28;20026;-40
2021/11/17 13:06:41;;;;;;;11.25;6.15;;;6.80;99.90;;;;;;5031669;28;20024;-40
2021/11/17 13:09:24;;;;;;;11.48;6.53;;;6.80;99.90;;;;;;5032602;28;20025;-41
2021/11/17 13:12:09;;;;;;;11.90;6.18;;;6.80;99.90;;;;;;5030825;28;20040;-40
2021/11/17 13:14:44;;;;;;;9.75;5.55;;;6.80;99.90;;;;;;5032349;28;20123;-40
2021/11/17 13:17:22;;;;;;;9.80;5.95;;;6.80;99.90;;;;;;5032401;28;20047;-43
2021/11/17 13:19:54;;;;;;;11.43;6.43;;;6.80;99.90;;;;;;5032003;28;20041;-40
2021/11/17 13:22:29;;;;;;;9.85;5.75;;;6.80;99.90;;;;;;5031587;28;20519;-40
2021/11/17 13:25:21;;;;;;;11.98;7.13;;;6.80;99.90;;;;;;5032147;28;20112;-42
2021/11/17 13:27:56;;;;;;;10.45;6.03;;;6.80;99.90;;;;;;5031842;28;20030;-42
2021/11/17 13:30:27;;;;;;;12.93;6.40;;;6.80;99.90;;;;;;5032082;28;20101;-42
2021/11/17 13:32:53;;;;;;;9.43;5.75;;;6.80;99.90;;;;;;5031464;28;20045;-40
2021/11/17 13:35:38;;;;;;;9.75;6.13;;;6.90;99.90;;;;;;5031863;28;20021;-39
2021/11/17 13:38:24;;;;;;;10.20;6.22;;;6.90;99.90;;;;;;5030977;28;20030;-40
2021/11/17 13:40:55;;;;;;;11.00;6.68;;;7.00;99.90;;;;;;5031515;28;20063;-40
2021/11/17 13:43:23;;;;;;;10.90;6.72;;;7.00;99.90;;;;;;5031873;28;20064;-40
2021/11/17 13:45:53;;;;;;;12.85;6.28;;;7.00;99.90;;;;;;5031567;28;20530;-40
2021/11/17 13:48:23;;;;;;;10.98;6.35;;;7.10;99.90;;;;;;5031939;28;20025;-40
2021/11/17 13:50:50;;;;;;;12.50;6.32;;;7.10;99.90;;;;;;5031592;28;20492;-40
2021/11/17 13:53:18;;;;;;;10.48;6.03;;;7.20;99.90;;;;;;5030912;28;20080;-42
2021/11/17 13:55:54;;;;;;;10.32;5.57;;;7.20;99.90;;;;;;5031259;28;20098;-40
2021/11/17 13:58:20;;;;;;;12.15;5.57;;;7.20;99.90;;;;;;5031574;28;20029;-40
2021/11/17 14:00:45;;;;;;;9.50;5.40;;;7.20;99.90;;;;;;5031181;28;20036;-42
2021/11/17 14:03:11;;;;;;;9.27;5.97;;;7.20;99.90;;;;;;5031587;28;20033;-42
2021/11/17 14:05:40;;;;;;;8.40;5.30;;;7.20;99.90;;;;;;5031328;28;20032;-42
2021/11/17 14:08:08;;;;;;;8.23;5.00;;;7.20;99.90;;;;;;5030382;28;20030;-42
2021/11/17 14:10:35;;;;;;;9.23;5.10;;;7.20;99.90;;;;;;5031380;28;20161;-43
2021/11/17 14:13:01;;;;;;;10.38;5.72;;;7.20;99.90;;;;;;5031463;28;20026;-43
2021/11/17 14:15:27;;;;;;;10.02;5.00;;;7.30;99.90;;;;;;5029366;28;20029;-43
2021/11/17 14:17:53;;;;;;;10.35;5.10;;;7.30;99.90;;;;;;5032664;28;20033;-41
2021/11/17 14:20:19;;;;;;;10.95;5.82;;;7.20;99.90;;;;;;5031778;28;20021;-40
2021/11/17 14:22:46;;;;;;;8.38;4.93;;;7.20;99.90;;;;;;5031089;28;20109;-39
2021/11/17 14:25:17;;;;;;;7.72;4.60;;;7.20;99.90;;;;;;5032700;28;20041;-42
2021/11/17 14:27:48;;;;;;;7.53;4.45;;;7.30;99.90;;;;;;5032442;28;20021;-42
2021/11/17 14:30:21;;;;;;;8.52;4.78;;;7.30;99.90;;;;;;5032629;28;20087;-40
2021/11/17 14:32:49;;;;;;;9.30;5.93;;;7.30;99.90;;;;;;5032387;28;20045;-40
2021/11/17 14:35:16;;;;;;;8.88;5.45;;;7.30;99.90;;;;;;5032419;28;20030;-40
2021/11/17 14:37:43;;;;;;;9.98;5.90;;;7.30;99.90;;;;;;5031556;28;20030;-40
2021/11/17 14:40:11;;;;;;;7.35;5.13;;;7.30;99.90;;;;;;5031539;28;20420;-40
2021/11/17 14:42:37;;;;;;;10.00;4.85;;;7.30;99.90;;;;;;5032106;28;20038;-44
2021/11/17 14:45:06;;;;;;;8.13;4.78;;;7.30;99.90;;;;;;5031488;28;20030;-41
2021/11/17 14:47:32;;;;;;;7.03;4.68;;;7.30;99.90;;;;;;5031260;28;20026;-40
2021/11/17 14:49:57;;;;;;;8.38;4.60;;;7.30;99.90;;;;;;5032165;28;20033;-41
2021/11/17 14:52:23;;;;;;;8.05;4.47;;;7.30;99.90;;;;;;5031150;28;20029;-40
2021/11/17 14:54:49;;;;;;;7.63;4.53;;;7.30;99.90;;;;;;5032094;28;20163;-40
2021/11/17 14:57:15;;;;;;;7.22;4.78;;;7.30;99.90;;;;;;5032335;28;20029;-40
2021/11/17 14:59:41;;;;;;;8.98;4.72;;;7.30;99.90;;;;;;5032217;28;20025;-43
2021/11/17 15:02:07;;;;;;;8.35;5.00;;;7.30;99.90;;;;;;5032222;28;20353;-40
2021/11/17 15:04:35;;;;;;;7.80;4.32;;;7.30;99.90;;;;;;5032179;28;20025;-40
2021/11/17 15:07:02;;;;;;;10.52;5.80;;;7.30;99.90;;;;;;5031157;28;20026;-41
2021/11/17 15:09:27;;;;;;;12.05;6.43;;;7.30;99.90;;;;;;5032197;28;20131;-43
2021/11/17 15:12:08;;;;;;;9.88;5.55;;;7.30;99.90;;;;;;5031948;28;20580;-41
2021/11/17 15:14:36;;;;;;;10.73;5.75;;;7.30;99.90;;;;;;5032187;28;20648;-42
2021/11/17 15:17:02;;;;;;;7.35;4.72;;;7.30;99.90;;;;;;5031705;28;20029;-40
2021/11/17 15:19:28;;;;;;;9.15;5.40;;;7.30;99.90;;;;;;5031874;28;20034;-40
2021/11/17 15:21:55;;;;;;;10.75;5.70;;;7.30;99.90;;;;;;5030799;28;20036;-42
2021/11/17 15:24:21;;;;;;;11.70;6.10;;;7.20;99.90;;;;;;5031934;28;20017;-40
2021/11/17 15:27:24;;;;;;;7.90;4.65;;;7.20;99.90;;;;;;5031589;28;20436;-40
2021/11/17 15:29:50;;;;;;;10.43;5.55;;;7.30;99.90;;;;;;5030809;28;20083;-45
2021/11/17 15:32:18;;;;;;;12.38;6.68;;;7.30;99.90;;;;;;5031414;28;20034;-40
2021/11/17 15:34:45;;;;;;;13.25;6.63;;;7.20;99.90;;;;;;5031581;28;20079;-40
2021/11/17 15:37:10;;;;;;;15.30;6.63;;;7.20;99.90;;;;;;5030811;28;20044;-42
2021/11/17 15:39:36;;;;;;;13.70;5.88;;;7.10;99.90;;;;;;5031744;28;20056;-40
2021/11/17 15:42:02;;;;;;;11.38;5.38;;;7.20;99.90;;;;;;5031121;28;20025;-40
2021/11/17 15:44:27;;;;;;;9.85;5.05;;;7.10;99.90;;;;;;5030723;28;20030;-40
2021/11/17 15:47:00;;;;;;;10.85;6.05;;;7.20;99.90;;;;;;5031472;28;20033;-41
2021/11/17 15:49:27;;;;;;;10.25;5.47;;;7.20;99.90;;;;;;5031599;28;20029;-40
2021/11/17 15:51:54;;;;;;;8.30;4.80;;;7.10;99.90;;;;;;5030159;28;20389;-41
2021/11/17 15:54:21;;;;;;;8.55;5.80;;;7.10;99.90;;;;;;5031269;28;20044;-43
2021/11/17 15:56:47;;;;;;;9.40;5.78;;;7.10;99.90;;;;;;5031172;28;20067;-41
2021/11/17 15:59:13;;;;;;;9.43;5.93;;;7.10;99.90;;;;;;5030277;28;20392;-42
2021/11/17 16:01:46;;;;;;;11.10;6.00;;;7.00;99.90;;;;;;5030597;28;20025;-41